createdAt,value
2018-01-25T00:02:00.435Z,4.27
2018-01-25T00:04:28.949Z,3.67
2018-01-25T00:06:57.419Z,3.63
2018-01-25T00:09:25.889Z,4.57
2018-01-25T00:11:54.341Z,3.33
2018-01-25T00:14:22.837Z,5.63
2018-01-25T00:16:51.315Z,3.40
2018-01-25T00:19:19.764Z,3.93
2018-01-25T00:21:47.569Z,5.37
2018-01-25T00:24:16.207Z,5.13
2018-01-25T00:26:44.675Z,6.23
2018-01-25T00:29:13.156Z,5.57
2018-01-25T00:31:42.388Z,4.47
2018-01-25T00:34:10.855Z,4.87
2018-01-25T00:36:39.328Z,5.70
2018-01-25T00:39:07.827Z,4.97
2018-01-25T00:41:36.286Z,4.23
2018-01-25T00:44:04.752Z,5.70
2018-01-25T00:46:33.982Z,4.60
2018-01-25T00:49:02.438Z,4.40
2018-01-25T00:51:30.959Z,5.47
2018-01-25T00:53:59.899Z,3.17
2018-01-25T00:56:29.371Z,3.23
2018-01-25T00:58:57.860Z,3.93
2018-01-25T01:01:26.331Z,3.40
2018-01-25T01:03:54.780Z,3.43
2018-01-25T01:13:10.848Z,3.60
2018-01-25T01:15:39.315Z,3.03
2018-01-25T01:18:09.286Z,4.87
2018-01-25T01:20:37.734Z,3.73
2018-01-25T01:23:06.986Z,3.47
2018-01-25T01:25:35.423Z,2.53
2018-01-25T01:28:04.681Z,3.77
2018-01-25T01:30:33.133Z,2.83
2018-01-25T01:33:01.599Z,2.90
2018-01-25T01:35:30.076Z,2.93
2018-01-25T01:37:58.553Z,4.03
2018-01-25T01:40:27.012Z,4.70
2018-01-25T01:42:56.237Z,3.70
2018-01-25T01:45:24.703Z,3.07
2018-01-25T01:47:53.931Z,2.80
2018-01-25T01:50:22.522Z,2.60
2018-01-25T01:52:51.038Z,4.17
2018-01-25T01:55:19.508Z,3.33
2018-01-25T01:57:47.972Z,2.87
2018-01-25T02:00:16.417Z,3.13
2018-01-25T02:02:44.869Z,3.67
2018-01-25T02:05:14.092Z,2.63
2018-01-25T02:07:42.593Z,4.30
2018-01-25T02:10:11.032Z,3.53
2018-01-25T02:12:41.141Z,3.27
2018-01-25T02:15:10.397Z,4.33
2018-01-25T02:17:39.192Z,3.73
2018-01-25T02:20:07.663Z,3.80
2018-01-25T02:22:37.088Z,3.47
2018-01-25T02:25:05.569Z,3.20
2018-01-25T02:27:34.037Z,4.10
2018-01-25T02:30:02.323Z,3.83
2018-01-25T02:32:30.969Z,5.70
2018-01-25T02:34:59.476Z,3.40
2018-01-25T02:37:27.921Z,3.93
2018-01-25T02:39:56.400Z,4.00
2018-01-25T02:42:24.849Z,4.77
2018-01-25T02:44:54.094Z,2.77
2018-01-25T02:47:22.554Z,4.47
2018-01-25T02:49:50.992Z,8.63
2018-01-25T02:52:19.452Z,6.10
2018-01-25T02:54:47.929Z,7.50
2018-01-25T02:57:16.389Z,3.47
2018-01-25T02:59:44.865Z,5.77
2018-01-25T03:02:13.337Z,4.73
2018-01-25T03:04:41.820Z,2.73
2018-01-25T03:07:10.288Z,3.40
2018-01-25T03:09:38.769Z,3.07
2018-01-25T03:12:07.208Z,2.60
2018-01-25T03:14:35.756Z,3.53
2018-01-25T03:17:04.231Z,3.17
2018-01-25T03:19:32.704Z,4.07
2018-01-25T03:22:01.879Z,4.20
2018-01-25T03:24:30.541Z,2.33
2018-01-25T03:26:59.815Z,2.67
2018-01-25T03:29:28.307Z,3.80
2018-01-25T03:31:56.749Z,4.33
2018-01-25T03:34:25.190Z,15.77
2018-01-25T03:36:54.407Z,9.07
2018-01-25T03:39:22.852Z,11.47
2018-01-25T03:41:52.092Z,7.40
2018-01-25T03:44:20.561Z,7.77
2018-01-25T03:46:48.822Z,6.37
2018-01-25T03:49:17.292Z,9.10
2018-01-25T03:51:46.520Z,7.27
2018-01-25T03:54:15.021Z,6.67
2018-01-25T03:56:43.497Z,5.67
2018-01-25T03:59:11.992Z,4.70
2018-01-25T04:01:41.237Z,7.30
2018-01-25T04:04:09.795Z,49.27
2018-01-25T04:06:38.270Z,12.77
2018-01-25T04:09:06.836Z,14.33
2018-01-25T04:11:35.318Z,17.07
2018-01-25T04:14:03.797Z,18.07
2018-01-25T04:16:32.761Z,18.03
2018-01-25T04:19:01.960Z,17.50
2018-01-25T04:21:31.096Z,24.17
2018-01-25T04:24:00.549Z,51.80
2018-01-25T04:26:29.037Z,25.20
2018-01-25T04:28:57.523Z,39.40
2018-01-25T04:31:26.002Z,38.60
2018-01-25T04:33:54.487Z,48.60
2018-01-25T04:36:22.946Z,40.50
2018-01-25T04:38:51.441Z,54.37
2018-01-25T04:41:19.923Z,47.70
2018-01-25T04:43:48.232Z,53.20
2018-01-25T04:46:16.715Z,64.47
2018-01-25T04:48:45.203Z,55.53
2018-01-25T04:51:14.451Z,59.30
2018-01-25T04:53:42.932Z,48.77
2018-01-25T04:56:11.430Z,32.47
2018-01-25T04:58:39.907Z,36.73
2018-01-25T05:01:08.368Z,55.30
2018-01-25T05:03:37.110Z,25.20
2018-01-25T05:06:06.354Z,25.00
2018-01-25T05:08:34.868Z,173.83
2018-01-25T05:11:03.362Z,55.30
2018-01-25T05:13:33.450Z,69.77
2018-01-25T05:16:02.567Z,10.50
2018-01-25T05:18:31.454Z,31.03
2018-01-25T05:21:00.033Z,35.60
2018-01-25T05:23:28.332Z,21.17
2018-01-25T05:25:57.410Z,131.80
2018-01-25T05:28:25.672Z,55.07
2018-01-25T05:30:54.118Z,73.03
2018-01-25T05:33:22.398Z,135.03
2018-01-25T05:35:50.891Z,31.97
2018-01-25T05:38:19.344Z,83.63
2018-01-25T05:40:47.818Z,154.30
2018-01-25T05:43:16.295Z,102.77
2018-01-25T05:45:44.445Z,67.50
2018-01-25T05:48:13.684Z,165.70
2018-01-25T05:50:42.170Z,117.10
2018-01-25T05:53:10.643Z,132.13
2018-01-25T05:55:39.131Z,36.73
2018-01-25T05:58:07.634Z,14.23
2018-01-25T06:00:36.236Z,100.67
2018-01-25T06:03:04.805Z,94.47
2018-01-25T06:05:33.289Z,74.27
2018-01-25T06:08:02.473Z,73.90
2018-01-25T06:10:31.386Z,63.93
2018-01-25T06:13:00.027Z,47.73
2018-01-25T06:15:28.720Z,183.90
2018-01-25T06:17:57.234Z,111.97
2018-01-25T06:20:25.919Z,80.50
2018-01-25T06:22:54.416Z,134.43
2018-01-25T06:25:23.636Z,137.17
2018-01-25T06:27:52.109Z,138.87
2018-01-25T06:30:20.591Z,134.83
2018-01-25T06:32:49.063Z,94.07
2018-01-25T06:35:17.520Z,71.30
2018-01-25T06:37:46.771Z,69.37
2018-01-25T06:40:15.306Z,172.93
2018-01-25T06:42:43.932Z,44.67
2018-01-25T06:45:12.413Z,46.60
2018-01-25T06:47:40.880Z,169.07
2018-01-25T06:50:09.341Z,105.33
2018-01-25T06:52:38.587Z,72.80
2018-01-25T06:55:07.066Z,88.27
2018-01-25T06:57:35.548Z,103.73
2018-01-25T07:00:03.701Z,108.33
2018-01-25T07:02:32.980Z,94.97
2018-01-25T07:05:01.461Z,157.60
2018-01-25T07:07:29.918Z,57.17
2018-01-25T07:09:59.189Z,168.13
2018-01-25T07:12:27.663Z,44.03
2018-01-25T07:14:56.126Z,44.00
2018-01-25T07:17:25.342Z,10.67
2018-01-25T07:19:53.814Z,40.27
2018-01-25T07:22:22.282Z,18.70
2018-01-25T07:24:50.749Z,8.33
2018-01-25T07:27:19.239Z,16.17
2018-01-25T07:29:47.717Z,12.07
2018-01-25T07:32:16.174Z,13.03
2018-01-25T07:34:44.685Z,9.20
2018-01-25T07:37:13.152Z,8.40
2018-01-25T07:39:41.604Z,7.80
2018-01-25T07:42:10.230Z,6.30
2018-01-25T07:44:38.672Z,5.17
2018-01-25T07:47:07.144Z,6.33
2018-01-25T07:49:36.356Z,5.27
2018-01-25T07:52:04.832Z,6.67
2018-01-25T07:54:33.197Z,7.17
2018-01-25T07:57:03.105Z,4.40
2018-01-25T07:59:33.066Z,4.70
2018-01-25T08:02:02.140Z,4.70
2018-01-25T08:04:30.588Z,6.30
2018-01-25T08:06:59.843Z,4.53
2018-01-25T08:09:28.292Z,5.47
2018-01-25T08:11:57.376Z,6.90
2018-01-25T08:14:25.902Z,6.17
2018-01-25T08:16:54.180Z,3.97
2018-01-25T08:19:22.631Z,5.47
2018-01-25T08:21:51.115Z,4.77
2018-01-25T08:24:19.568Z,4.13
2018-01-25T08:26:48.032Z,3.80
2018-01-25T08:29:17.287Z,4.13
2018-01-25T08:31:45.571Z,4.40
2018-01-25T08:34:14.062Z,5.87
2018-01-25T08:36:42.598Z,5.00
2018-01-25T08:39:11.229Z,5.30
2018-01-25T08:41:39.688Z,5.07
2018-01-25T08:44:08.142Z,6.57
2018-01-25T08:46:36.625Z,4.80
2018-01-25T08:49:05.109Z,4.57
2018-01-25T08:51:33.852Z,4.60
2018-01-25T08:54:02.783Z,5.33
2018-01-25T08:56:31.891Z,4.77
2018-01-25T08:59:00.349Z,7.10
2018-01-25T09:01:28.854Z,7.83
2018-01-25T09:03:57.330Z,7.97
2018-01-25T09:06:25.772Z,8.30
2018-01-25T09:08:55.047Z,6.67
2018-01-25T09:11:23.493Z,5.47
2018-01-25T09:13:51.970Z,5.57
2018-01-25T09:16:20.425Z,7.63
2018-01-25T09:18:48.932Z,5.50
2018-01-25T09:21:17.521Z,5.43
2018-01-25T09:23:46.096Z,6.70
2018-01-25T09:26:14.602Z,6.90
2018-01-25T09:28:43.041Z,9.40
2018-01-25T09:31:11.489Z,8.17
2018-01-25T09:33:40.759Z,8.53
2018-01-25T09:36:09.226Z,6.10
2018-01-25T09:38:37.705Z,8.80
2018-01-25T09:41:05.828Z,7.53
2018-01-25T09:43:34.308Z,8.20
2018-01-25T09:46:02.943Z,7.13
2018-01-25T09:48:32.079Z,7.20
2018-01-25T09:51:01.907Z,5.80
2018-01-25T09:53:30.431Z,5.47
2018-01-25T09:55:58.894Z,7.67
2018-01-25T09:58:27.376Z,8.70
2018-01-25T10:00:55.816Z,7.10
2018-01-25T10:03:24.288Z,6.67
2018-01-25T10:05:53.508Z,8.13
2018-01-25T10:08:21.978Z,6.80
2018-01-25T10:10:50.443Z,6.40
2018-01-25T10:13:19.687Z,8.20
2018-01-25T10:15:48.156Z,9.47
2018-01-25T10:18:16.606Z,5.93
2018-01-25T10:20:45.842Z,8.93
2018-01-25T10:23:14.334Z,6.30
2018-01-25T10:25:42.789Z,9.33
2018-01-25T10:28:11.263Z,7.63
2018-01-25T10:30:39.713Z,6.97
2018-01-25T10:33:08.971Z,7.23
2018-01-25T10:35:37.420Z,8.30
2018-01-25T10:38:06.096Z,6.90
2018-01-25T10:40:34.575Z,5.63
2018-01-25T10:43:03.029Z,8.67
2018-01-25T10:45:32.768Z,9.50
2018-01-25T10:48:01.472Z,7.87
2018-01-25T10:50:29.946Z,8.93
2018-01-25T10:52:58.402Z,6.93
2018-01-25T10:55:26.874Z,7.67
2018-01-25T10:57:56.145Z,8.30
2018-01-25T11:00:24.423Z,6.10
2018-01-25T11:02:52.914Z,7.73
2018-01-25T11:05:21.829Z,8.23
2018-01-25T11:07:50.341Z,6.93
2018-01-25T11:10:18.811Z,6.70
2018-01-25T11:12:47.284Z,10.20
2018-01-25T11:15:15.743Z,8.43
2018-01-25T11:17:44.190Z,7.17
2018-01-25T11:20:12.631Z,7.57
2018-01-25T11:22:41.113Z,8.30
2018-01-25T11:25:09.560Z,7.50
2018-01-25T11:27:38.077Z,7.37
2018-01-25T11:30:06.549Z,9.47
2018-01-25T11:32:35.020Z,8.27
2018-01-25T11:35:03.989Z,8.80
2018-01-25T11:37:33.205Z,7.57
2018-01-25T11:40:01.683Z,7.57
2018-01-25T11:42:30.126Z,5.57
2018-01-25T11:44:59.347Z,9.37
2018-01-25T11:47:27.617Z,9.30
2018-01-25T11:49:55.900Z,7.10
2018-01-25T11:52:24.371Z,8.07
2018-01-25T11:54:53.657Z,6.53
2018-01-25T11:57:22.275Z,5.97
2018-01-25T11:59:50.746Z,8.40
2018-01-25T12:02:19.184Z,4.80
2018-01-25T12:04:47.715Z,5.70
2018-01-25T12:07:16.166Z,7.00
2018-01-25T12:09:45.396Z,7.10
2018-01-25T12:12:13.918Z,6.70
2018-01-25T12:14:42.363Z,8.30
2018-01-25T12:17:10.824Z,5.97
2018-01-25T12:19:39.299Z,6.93
2018-01-25T12:22:07.797Z,6.37
2018-01-25T12:24:36.284Z,5.97
2018-01-25T12:27:04.761Z,6.83
2018-01-25T12:29:33.880Z,6.33
2018-01-25T12:32:03.563Z,5.30
2018-01-25T12:34:32.576Z,6.00
2018-01-25T12:37:01.026Z,5.73
2018-01-25T12:39:29.492Z,8.37
2018-01-25T12:41:57.959Z,5.60
2018-01-25T12:44:27.177Z,21.23
2018-01-25T12:46:55.443Z,12.37
2018-01-25T12:49:23.947Z,8.43
2018-01-25T12:51:52.393Z,9.80
2018-01-25T12:54:21.624Z,5.70
2018-01-25T12:56:50.115Z,6.83
2018-01-25T12:59:18.802Z,7.40
2018-01-25T13:01:47.253Z,10.73
2018-01-25T13:04:15.712Z,8.40
2018-01-25T13:06:44.964Z,7.07
2018-01-25T13:09:13.410Z,6.60
2018-01-25T13:11:41.920Z,8.17
2018-01-25T13:14:10.396Z,8.47
2018-01-25T13:16:38.855Z,9.40
2018-01-25T13:19:07.341Z,7.67
2018-01-25T13:21:36.011Z,12.07
2018-01-25T13:24:05.142Z,9.57
2018-01-25T13:26:33.618Z,11.83
2018-01-25T13:29:02.742Z,10.63
2018-01-25T13:31:31.216Z,9.23
2018-01-25T13:33:59.678Z,10.53
2018-01-25T13:36:28.151Z,9.87
2018-01-25T13:38:56.666Z,9.93
2018-01-25T13:41:25.137Z,8.27
2018-01-25T13:43:53.633Z,9.33
2018-01-25T13:46:22.844Z,9.90
2018-01-25T13:48:52.074Z,8.30
2018-01-25T13:51:20.577Z,8.97
2018-01-25T13:53:49.059Z,9.30
2018-01-25T13:56:17.501Z,9.77
2018-01-25T13:58:46.152Z,8.17
2018-01-25T14:01:15.403Z,9.67
2018-01-25T14:03:44.110Z,11.30
2018-01-25T14:06:12.565Z,10.07
2018-01-25T14:08:41.006Z,7.83
2018-01-25T14:11:10.244Z,8.03
2018-01-25T14:13:38.722Z,9.63
2018-01-25T14:16:07.167Z,9.00
2018-01-25T14:18:35.681Z,9.73
2018-01-25T14:21:04.877Z,10.77
2018-01-25T14:23:33.895Z,9.53
2018-01-25T14:26:02.780Z,14.37
2018-01-25T14:28:31.233Z,9.03
2018-01-25T14:30:59.733Z,7.90
2018-01-25T14:33:28.177Z,7.80
2018-01-25T14:35:56.703Z,7.93
2018-01-25T14:38:25.173Z,6.33
2018-01-25T14:40:53.632Z,7.90
2018-01-25T14:43:22.307Z,8.87
2018-01-25T14:45:50.817Z,8.07
2018-01-25T14:48:19.287Z,7.73
2018-01-25T14:50:47.790Z,6.30
2018-01-25T14:53:16.257Z,9.40
2018-01-25T14:55:44.715Z,7.57
2018-01-25T14:58:13.210Z,8.33
2018-01-25T15:00:42.438Z,10.13
2018-01-25T15:03:10.911Z,11.97
2018-01-25T15:05:39.363Z,11.93
2018-01-25T15:08:07.833Z,10.10
2018-01-25T15:10:36.300Z,9.83
2018-01-25T15:13:05.220Z,12.43
2018-01-25T15:15:34.178Z,13.13
2018-01-25T15:18:04.062Z,13.93
2018-01-25T15:20:33.797Z,9.50
2018-01-25T15:23:02.269Z,11.67
2018-01-25T15:25:36.893Z,9.77
2018-01-25T15:28:05.365Z,9.97
2018-01-25T15:30:34.599Z,9.90
2018-01-25T15:33:03.086Z,10.37
2018-01-25T15:35:31.538Z,9.80
2018-01-25T15:38:00.027Z,7.63
2018-01-25T15:40:28.485Z,8.47
2018-01-25T15:42:57.791Z,9.93
2018-01-25T15:45:26.404Z,9.00
2018-01-25T15:47:55.099Z,10.53
2018-01-25T15:50:23.537Z,7.60
2018-01-25T15:52:52.767Z,10.93
2018-01-25T15:55:21.239Z,10.83
2018-01-25T15:57:49.679Z,10.13
2018-01-25T16:00:18.961Z,9.20
2018-01-25T16:02:47.437Z,11.33
2018-01-25T16:05:15.903Z,8.57
2018-01-25T16:07:44.751Z,8.93
2018-01-25T16:10:13.997Z,10.20
2018-01-25T16:12:42.453Z,10.80
2018-01-25T16:15:10.922Z,10.97
2018-01-25T16:17:39.367Z,11.53
2018-01-25T16:20:08.633Z,8.90
2018-01-25T16:22:37.089Z,10.30
2018-01-25T16:25:05.536Z,10.07
2018-01-25T16:27:33.996Z,10.23
2018-01-25T16:30:03.230Z,9.13
2018-01-25T16:32:32.734Z,11.50
2018-01-25T16:35:01.183Z,10.53
2018-01-25T16:37:30.409Z,10.53
2018-01-25T16:39:58.880Z,8.53
2018-01-25T16:42:27.373Z,8.37
2018-01-25T16:44:55.844Z,12.57
2018-01-25T16:47:24.279Z,8.80
2018-01-25T16:49:52.750Z,9.37
2018-01-25T16:52:22.157Z,11.70
2018-01-25T16:54:53.333Z,13.90
2018-01-25T16:57:22.578Z,11.40
2018-01-25T16:59:51.688Z,12.77
2018-01-25T17:02:20.172Z,9.40
2018-01-25T17:04:48.631Z,9.87
2018-01-25T17:07:17.108Z,14.53
2018-01-25T17:09:46.465Z,10.70
2018-01-25T17:12:16.224Z,11.50
2018-01-25T17:14:45.280Z,9.80
2018-01-25T17:17:13.773Z,11.87
2018-01-25T17:19:42.228Z,10.57
2018-01-25T17:22:11.476Z,9.43
2018-01-25T17:24:39.937Z,9.63
2018-01-25T17:27:08.410Z,10.57
2018-01-25T17:29:37.031Z,10.97
2018-01-25T17:32:05.505Z,12.50
2018-01-25T17:34:33.980Z,16.10
2018-01-25T17:37:02.467Z,14.97
2018-01-25T17:39:30.921Z,11.63
2018-01-25T17:41:59.411Z,13.77
2018-01-25T17:44:27.888Z,11.17
2018-01-25T17:46:56.342Z,13.40
2018-01-25T17:49:24.808Z,19.23
2018-01-25T17:51:53.251Z,12.63
2018-01-25T17:54:21.752Z,10.10
2018-01-25T17:56:50.975Z,14.43
2018-01-25T17:59:19.454Z,15.17
2018-01-25T18:01:48.119Z,12.67
2018-01-25T18:04:17.332Z,11.97
2018-01-25T18:06:46.809Z,14.07
2018-01-25T18:09:16.073Z,11.10
2018-01-25T18:11:44.554Z,11.50
2018-01-25T18:14:13.069Z,11.13
2018-01-25T18:16:42.301Z,21.07
2018-01-25T18:19:10.783Z,13.47
2018-01-25T18:21:39.279Z,12.77
2018-01-25T18:24:07.744Z,13.43
2018-01-25T18:26:36.246Z,11.83
2018-01-25T18:29:04.716Z,10.93
2018-01-25T18:31:33.192Z,11.13
2018-01-25T18:34:01.476Z,9.73
2018-01-25T18:36:29.923Z,11.37
2018-01-25T18:38:58.369Z,9.63
2018-01-25T18:41:26.870Z,9.80
2018-01-25T18:43:56.114Z,11.73
2018-01-25T18:46:24.565Z,10.60
2018-01-25T18:48:53.053Z,10.37
2018-01-25T18:51:21.527Z,9.13
2018-01-25T18:53:49.991Z,8.13
2018-01-25T18:56:19.248Z,9.10
2018-01-25T18:58:47.713Z,8.27
2018-01-25T19:01:16.200Z,9.27
2018-01-25T19:03:44.678Z,11.53
2018-01-25T19:06:13.471Z,9.33
2018-01-25T19:08:43.355Z,9.87
2018-01-25T19:11:11.829Z,8.27
2018-01-25T19:13:40.296Z,9.73
2018-01-25T19:16:08.775Z,8.17
2018-01-25T19:18:37.227Z,7.93
2018-01-25T19:21:05.714Z,6.73
2018-01-25T19:23:34.955Z,6.83
2018-01-25T19:26:03.402Z,8.40
2018-01-25T19:28:32.625Z,7.30
2018-01-25T19:31:01.087Z,8.23
2018-01-25T19:33:30.320Z,9.43
2018-01-25T19:35:58.778Z,7.50
2018-01-25T19:38:27.437Z,9.03
2018-01-25T19:40:56.668Z,6.87
2018-01-25T19:43:25.123Z,5.80
2018-01-25T19:45:54.357Z,8.67
2018-01-25T19:48:22.808Z,6.63
2018-01-25T19:50:51.284Z,8.10
2018-01-25T19:53:19.742Z,11.17
2018-01-25T19:55:48.212Z,9.27
2018-01-25T19:58:16.689Z,9.77
2018-01-25T20:00:45.710Z,9.57
2018-01-25T20:03:15.660Z,10.80
2018-01-25T20:05:44.167Z,8.77
2018-01-25T20:08:12.455Z,10.10
2018-01-25T20:10:40.911Z,9.23
2018-01-25T20:13:09.203Z,11.23
2018-01-25T20:15:37.678Z,8.73
2018-01-25T20:18:06.136Z,9.10
2018-01-25T20:20:34.622Z,13.77
2018-01-25T20:23:03.096Z,10.90
2018-01-25T20:25:31.572Z,9.43
2018-01-25T20:28:00.039Z,9.13
2018-01-25T20:30:28.509Z,13.47
2018-01-25T20:32:56.969Z,11.40
2018-01-25T20:35:26.229Z,10.10
2018-01-25T20:37:54.729Z,11.03
2018-01-25T20:40:23.370Z,9.63
2018-01-25T20:42:51.834Z,8.57
2018-01-25T20:45:21.224Z,11.87
2018-01-25T20:47:50.452Z,9.93
2018-01-25T20:50:18.901Z,11.87
2018-01-25T20:52:48.144Z,9.77
2018-01-25T20:55:16.617Z,10.10
2018-01-25T20:57:46.084Z,11.93
2018-01-25T21:00:15.312Z,8.97
2018-01-25T21:02:44.536Z,9.20
2018-01-25T21:05:13.203Z,11.73
2018-01-25T21:07:41.707Z,19.80
2018-01-25T21:10:10.172Z,12.33
2018-01-25T21:12:38.628Z,12.30
2018-01-25T21:15:07.297Z,12.37
2018-01-25T21:17:35.776Z,12.40
2018-01-25T21:20:03.597Z,9.13
2018-01-25T21:22:32.713Z,9.43
2018-01-25T21:25:01.247Z,11.13
2018-01-25T21:27:29.701Z,14.03
2018-01-25T21:29:58.159Z,9.10
2018-01-25T21:32:27.414Z,14.37
2018-01-25T21:34:55.904Z,12.60
2018-01-25T21:37:24.376Z,10.27
2018-01-25T21:39:54.455Z,10.70
2018-01-25T21:42:22.949Z,10.97
2018-01-25T21:44:51.427Z,13.53
2018-01-25T21:47:19.881Z,9.60
2018-01-25T21:49:49.111Z,11.03
2018-01-25T21:52:17.605Z,11.10
2018-01-25T21:54:46.097Z,15.63
2018-01-25T21:57:14.705Z,21.47
2018-01-25T21:59:43.216Z,14.27
2018-01-25T22:02:12.432Z,14.87
2018-01-25T22:04:40.874Z,14.33
2018-01-25T22:07:09.354Z,12.20
2018-01-25T22:09:38.607Z,15.37
2018-01-25T22:12:07.881Z,11.93
2018-01-25T22:14:36.359Z,11.00
2018-01-25T22:17:04.833Z,12.70
2018-01-25T22:19:34.071Z,10.27
2018-01-25T22:22:02.531Z,14.40
2018-01-25T22:24:31.023Z,9.93
2018-01-25T22:26:59.647Z,10.07
2018-01-25T22:29:28.150Z,9.67
2018-01-25T22:31:57.396Z,13.60
2018-01-25T22:34:26.012Z,12.83
2018-01-25T22:36:54.484Z,13.37
2018-01-25T22:39:22.950Z,11.77
2018-01-25T22:41:51.412Z,13.53
2018-01-25T22:44:19.864Z,13.63
2018-01-25T22:46:48.323Z,8.67
2018-01-25T22:49:17.543Z,13.97
2018-01-25T22:51:46.215Z,11.93
2018-01-25T22:54:15.457Z,10.10
2018-01-25T22:56:43.944Z,12.53
2018-01-25T22:59:12.088Z,9.63
2018-01-25T23:01:40.217Z,10.83
2018-01-25T23:04:08.757Z,10.00
2018-01-25T23:06:37.245Z,8.63
2018-01-25T23:09:05.061Z,9.13
2018-01-25T23:11:34.312Z,13.07
2018-01-25T23:14:02.788Z,10.10
2018-01-25T23:16:31.259Z,12.97
2018-01-25T23:18:59.775Z,12.17
2018-01-25T23:21:28.236Z,13.30
2018-01-25T23:23:56.710Z,11.97
2018-01-25T23:26:25.216Z,10.33
2018-01-25T23:28:53.687Z,11.87
2018-01-25T23:31:22.145Z,11.70
2018-01-25T23:33:50.604Z,14.57
2018-01-25T23:36:19.081Z,12.70
2018-01-25T23:38:47.552Z,10.90
2018-01-25T23:41:16.777Z,11.70
2018-01-25T23:43:45.746Z,9.87
2018-01-25T23:46:14.726Z,10.80
2018-01-25T23:48:44.007Z,12.87
2018-01-25T23:51:12.467Z,11.57
2018-01-25T23:53:40.928Z,12.83
2018-01-25T23:56:09.406Z,14.07
2018-01-25T23:58:37.904Z,11.00
